ADDS METAR Data INFO
IDs: Format: Raw Decoded Include TAF

Data at: 0715 UTC 24 Jun 2018

KCFE 240655Z AUTO 00000KT 10SM CLR 19/15 A2983 RMK AO2 T01860148
KCFE 240635Z AUTO 00000KT 10SM CLR 19/15 A2983 RMK AO2 T01860148
KCFE 240615Z AUTO 00000KT 10SM CLR 19/15 A2983 RMK AO2 T01910150
KCFE 240555Z AUTO 00000KT 10SM CLR 19/15 A2983 RMK AO2 T01920150 10258 20187 402670144
KCFE 240535Z AUTO 00000KT 10SM CLR 19/15 A2982 RMK AO2 T01910152
KCFE 240515Z AUTO 00000KT 10SM CLR 19/16 A2982 RMK AO2 T01940155
KCFE 240455Z AUTO 00000KT 10SM CLR 20/16 A2982 RMK AO2 T01960156
KCFE 240435Z AUTO 00000KT 10SM CLR 20/15 A2982 RMK AO2 T01960154
KCFE 240415Z AUTO 00000KT 10SM CLR 20/16 A2981 RMK AO2 T02020155
KCFE 240355Z AUTO 00000KT 10SM SCT090 21/16 A2981 RMK AO2 T02060160
KCFE 240335Z AUTO 00000KT 10SM BKN090 21/16 A2981 RMK AO2 T02100160
KCFE 240315Z AUTO 00000KT 10SM BKN090 21/16 A2981 RMK AO2 T02110155
KCFE 240255Z AUTO 00000KT 10SM SCT090 21/16 A2980 RMK AO2 T02110157
KCFE 240235Z AUTO 00000KT 10SM CLR 22/16 A2979 RMK AO2 T02230155
KCFE 240215Z AUTO 00000KT 10SM CLR 23/15 A2978 RMK AO2 T02300152
KCFE 240155Z AUTO 00000KT 10SM CLR 23/16 A2978 RMK AO2 T02310155
KCFE 240135Z AUTO 00000KT 10SM CLR 24/16 A2977 RMK AO2 T02400155
KCFE 240115Z AUTO 16003KT 10SM CLR 25/15 A2977 RMK AO2 T02450152
KCFE 240055Z AUTO 00000KT 10SM CLR 25/15 A2977 RMK AO2 T02450145
KCFE 240035Z AUTO 18005KT 10SM CLR 25/15 A2977 RMK AO2 T02480145
KCFE 240015Z AUTO 19003KT 10SM CLR 25/16 A2976 RMK AO2 T02540157
KCFE 232355Z AUTO 16004KT 10SM CLR 26/15 A2976 RMK AO2 T02570147 10267 20247
KCFE 232335Z AUTO 16004KT 10SM CLR 26/15 A2975 RMK AO2 T02630148
KCFE 232315Z AUTO 14005KT 10SM SCT049 27/15 A2976 RMK AO2 T02650150
KCFE 232255Z AUTO 15004KT 10SM CLR 27/15 A2975 RMK AO2 T02650147
KCFE 232235Z AUTO 16005KT 10SM CLR 27/14 A2976 RMK AO2 T02650144
KCFE 232215Z AUTO 20004KT 10SM SCT046 26/15 A2976 RMK AO2 T02610146
KCFE 232155Z AUTO 18004KT 10SM SCT046 27/14 A2976 RMK AO2 T02650143
KCFE 232135Z AUTO 14003KT 10SM CLR 27/14 A2976 RMK AO2 T02650138
KCFE 232115Z AUTO 00000KT 10SM CLR 27/14 A2976 RMK AO2 T02650140
KCFE 232055Z AUTO 14003KT 10SM SCT048 SCT055 27/14 A2976 RMK AO2 T02650140
KCFE 232035Z AUTO 11004KT 10SM SCT048 SCT055 27/15 A2977 RMK AO2 T02650145
KCFE 232015Z AUTO 09004KT 10SM CLR 27/14 A2977 RMK AO2 T02650141
KCFE 231955Z AUTO 14004KT 10SM CLR 27/15 A2977 RMK AO2 T02650146
KCFE 231935Z AUTO 00000KT 10SM CLR 26/14 A2977 RMK AO2 T02640136
KCFE 231915Z AUTO 16004KT 10SM CLR 26/13 A2978 RMK AO2 T02620130
KCFE 231855Z AUTO 20004KT 10SM CLR 27/15 A2978 RMK AO2 T02650146
KCFE 231835Z AUTO 22003KT 10SM CLR 25/14 A2979 RMK AO2 T02540142
KCFE 231815Z AUTO 00000KT 10SM CLR 25/14 A2979 RMK AO2 T02530144
KCFE 231755Z AUTO 00000KT 10SM CLR 25/15 A2979 RMK AO2 T02540145 10254 20170
KCFE 231735Z AUTO 00000KT 10SM CLR 25/15 A2979 RMK AO2 T02480148
KCFE 231715Z AUTO 20004KT 10SM CLR 25/15 A2979 RMK AO2 T02450149
KCFE 231655Z AUTO 21003KT 10SM CLR 25/15 A2980 RMK AO2 T02450152
KCFE 231635Z AUTO 20003KT 10SM CLR 25/16 A2979 RMK AO2 T02450159
KCFE 231615Z AUTO 00000KT 10SM CLR 24/16 A2979 RMK AO2 T02400155
KCFE 231555Z AUTO 19003KT 10SM CLR 24/16 A2979 RMK AO2 T02390157
KCFE 231535Z AUTO 00000KT 10SM CLR 24/16 A2979 RMK AO2 T02350155
KCFE 231515Z AUTO 23003KT 10SM CLR 23/14 A2980 RMK AO2 T02300143
KCFE 231455Z AUTO 00000KT 10SM CLR 23/14 A2979 RMK AO2 T02260144
KCFE 231435Z AUTO 00000KT 10SM CLR 22/15 A2979 RMK AO2 T02220146
KCFE 231415Z AUTO 00000KT 10SM CLR 22/15 A2979 RMK AO2 T02150154
KCFE 231355Z AUTO 00000KT 10SM CLR 21/16 A2979 RMK AO2 T02110157
KCFE 231335Z AUTO 00000KT 10SM CLR 21/17 A2979 RMK AO2 T02060167
KCFE 231315Z AUTO 00000KT 10SM CLR 21/17 A2979 RMK AO2 T02060169
KCFE 231255Z AUTO 00000KT 10SM CLR 19/17 A2979 RMK AO2 T01920166
KCFE 231235Z AUTO 00000KT 10SM CLR 19/17 A2979 RMK AO2 T01850166
KCFE 231215Z AUTO 00000KT 7SM CLR 17/16 A2978 RMK AO2 T01710155
KCFE 231155Z AUTO 00000KT 7SM CLR 17/16 A2979 RMK AO2 T01690155 10173 20144
KCFE 231135Z AUTO 00000KT 7SM CLR 16/14 A2978 RMK AO2 T01550142
KCFE 231115Z AUTO 00000KT 5SM BR CLR 15/14 A2979 RMK AO2 T01510139
KCFE 231055Z AUTO 00000KT 7SM CLR 15/13 A2979 RMK AO2 T01450131
KCFE 231035Z AUTO 00000KT 10SM CLR 15/13 A2979 RMK AO2 T01450131
KCFE 231015Z AUTO 00000KT 7SM CLR 15/14 A2979 RMK AO2 T01480135
KCFE 230955Z AUTO 00000KT 7SM CLR 15/14 A2979 RMK AO2 T01500135
KCFE 230935Z AUTO 00000KT 10SM CLR 15/13 A2979 RMK AO2 T01480133
KCFE 230915Z AUTO 00000KT 10SM CLR 15/14 A2980 RMK AO2 T01500136
KCFE 230855Z AUTO 00000KT 7SM CLR 15/14 A2980 RMK AO2 T01520138
KCFE 230835Z AUTO 00000KT 5SM BR CLR 16/14 A2980 RMK AO2 T01570142
KCFE 230815Z AUTO 00000KT 10SM CLR 16/15 A2981 RMK AO2 T01640148
KCFE 230755Z AUTO 00000KT 7SM CLR 17/15 A2981 RMK AO2 T01670151
KCFE 230735Z AUTO 00000KT 10SM CLR 16/15 A2981 RMK AO2 T01630146
KCFE 230715Z AUTO 00000KT 10SM CLR 17/15 A2981 RMK AO2 T01670151
KCFE 230655Z AUTO 00000KT 10SM CLR 17/15 A2982 RMK AO2 T01670150
KCFE 230635Z AUTO 00000KT 10SM CLR 17/15 A2981 RMK AO2 T01680149
KCFE 230615Z AUTO 00000KT 10SM CLR 17/15 A2982 RMK AO2 T01700153
KCFE 230555Z AUTO 00000KT 10SM CLR 17/15 A2982 RMK AO2 T01700154 10245 20167 402660146
KCFE 230535Z AUTO 00000KT 10SM CLR 17/15 A2981 RMK AO2 T01710153
KCFE 230515Z AUTO 00000KT 10SM SCT050 18/16 A2982 RMK AO2 T01750156
KCFE 230455Z AUTO 00000KT 10SM BKN050 18/16 A2981 RMK AO2 T01810157
KCFE 230435Z AUTO 00000KT 10SM SCT050 18/16 A2982 RMK AO2 T01780156
KCFE 230415Z AUTO 00000KT 10SM CLR 19/16 A2982 RMK AO2 T01860160
KCFE 230355Z AUTO 00000KT 10SM CLR 19/16 A2982 RMK AO2 T01900162
KCFE 230335Z AUTO 00000KT 10SM CLR 20/17 A2982 RMK AO2 T01960165
KCFE 230315Z AUTO 00000KT 10SM CLR 20/16 A2981 RMK AO2 T01970162
KCFE 230255Z AUTO 00000KT 10SM CLR 21/17 A2981 RMK AO2 T02070166
KCFE 230235Z AUTO 00000KT 10SM CLR 22/16 A2980 RMK AO2 T02150164
KCFE 230215Z AUTO 00000KT 10SM CLR 23/16 A2979 RMK AO2 T02250161
KCFE 230155Z AUTO 00000KT 10SM CLR 23/16 A2979 RMK AO2 T02300161
KCFE 230135Z AUTO 00000KT 10SM CLR 23/17 A2979 RMK AO2 T02340165
KCFE 230115Z AUTO 00000KT 10SM CLR 24/17 A2980 RMK AO2 T02350165
KCFE 230055Z AUTO 12003KT 10SM CLR 24/16 A2980 RMK AO2 T02420160
KCFE 230035Z AUTO 13003KT 10SM CLR 25/17 A2980 RMK AO2 T02450169
KCFE 230015Z AUTO 13003KT 10SM CLR 25/16 A2981 RMK AO2 T02450164
KCFE 222355Z AUTO 13004KT 10SM CLR 25/15 A2981 RMK AO2 T02450153 10266 20245
KCFE 222335Z AUTO 10003KT 10SM CLR 25/14 A2982 RMK AO2 T02530144
KCFE 222315Z AUTO 07003KT 10SM CLR 25/14 A2982 RMK AO2 T02500144
KCFE 222255Z AUTO 07003KT 10SM SCT065 25/15 A2983 RMK AO2 T02520148
KCFE 222236Z AUTO 00000KT 10SM CLR 25/15 A2983 RMK AO2 T02540145
KCFE 222215Z AUTO 00000KT 10SM CLR 25/14 A2984 RMK AO2 T02520141
KCFE 222155Z AUTO 00000KT 10SM SCT065 SCT070 25/15 A2985 RMK AO2 T02510145
KCFE 222135Z AUTO 00000KT 10SM SCT043 BKN050 OVC065 25/15 A2985 RMK AO2 T02540146
KCFE 222115Z AUTO 02004KT 10SM BKN043 BKN050 BKN070 27/15 A2986 RMK AO2 T02650151
KCFE 222055Z AUTO 00000KT 10SM SCT070 27/14 A2986 RMK AO2 T02650135
KCFE 222036Z AUTO 17003KT 10SM CLR 26/14 A2987 RMK AO2 T02640139
KCFE 222015Z AUTO 27004KT 10SM CLR 26/16 A2987 RMK AO2 T02620155
KCFE 221955Z AUTO 18003KT 10SM CLR 25/15 A2988 RMK AO2 T02500148
KCFE 221936Z AUTO 00000KT 10SM CLR 25/15 A2988 RMK AO2 T02530149